Time;durP1;ratioP1;P1;durP2;ratioP2;P2;SDS_P1;SDS_P2;PMS_P1;PMS_P2;Temp;Humidity;BMP_temperature;BMP_pressure;BME280_temperature;BME280_humidity;BME280_pressure;Samples;Min_cycle;Max_cycle;Signal;HPM_P1;HPM_P2
2023/11/13 00:01:43;;;;;;;2.90;2.70;;;6.00;99.90;;;;;;5086374;28;20199;-75
2023/11/13 00:04:10;;;;;;;3.55;2.80;;;6.00;99.90;;;;;;5087010;28;20564;-75
2023/11/13 00:06:37;;;;;;;3.40;2.88;;;6.10;99.90;;;;;;5086768;28;20187;-75
2023/11/13 00:09:04;;;;;;;3.50;3.20;;;6.10;99.90;;;;;;5086214;28;20533;-74
2023/11/13 00:11:31;;;;;;;3.72;2.80;;;6.10;99.90;;;;;;5086709;28;20198;-74
2023/11/13 00:13:59;;;;;;;4.25;3.25;;;6.10;99.90;;;;;;5086046;28;20299;-75
2023/11/13 00:16:27;;;;;;;5.68;3.13;;;6.10;99.90;;;;;;5086729;28;20269;-75
2023/11/13 00:18:54;;;;;;;3.15;2.67;;;6.20;99.90;;;;;;5086130;28;20625;-74
2023/11/13 00:21:21;;;;;;;3.83;2.53;;;6.20;99.90;;;;;;5086689;28;20280;-75
2023/11/13 00:23:48;;;;;;;3.67;3.33;;;6.20;99.90;;;;;;5085756;28;20203;-74
2023/11/13 00:26:15;;;;;;;5.15;3.65;;;6.20;99.90;;;;;;5086809;28;20649;-75
2023/11/13 00:28:42;;;;;;;4.07;3.50;;;6.20;99.90;;;;;;5086014;28;20207;-75
2023/11/13 00:31:09;;;;;;;3.97;3.22;;;6.30;99.90;;;;;;5086613;28;20199;-74
2023/11/13 00:33:37;;;;;;;3.58;3.28;;;6.20;99.90;;;;;;5086706;28;20299;-74
2023/11/13 00:36:06;;;;;;;3.00;2.75;;;6.30;99.90;;;;;;5086438;28;20227;-75
2023/11/13 00:38:33;;;;;;;2.63;2.33;;;6.30;99.90;;;;;;5085675;28;20660;-75
2023/11/13 00:41:00;;;;;;;6.13;3.55;;;6.30;99.90;;;;;;5088911;28;20617;-75
2023/11/13 00:43:26;;;;;;;3.47;3.17;;;6.30;99.90;;;;;;5090939;28;20249;-75
2023/11/13 00:45:53;;;;;;;3.53;3.22;;;6.30;99.90;;;;;;5090412;28;20207;-74
2023/11/13 00:48:20;;;;;;;3.75;3.40;;;6.30;99.90;;;;;;5089710;28;20205;-75
2023/11/13 00:50:48;;;;;;;4.90;4.43;;;6.40;99.90;;;;;;5087186;28;20199;-75
2023/11/13 00:53:15;;;;;;;3.78;2.97;;;6.40;99.90;;;;;;5090133;28;20195;-76
2023/11/13 00:55:42;;;;;;;3.40;2.80;;;6.40;99.90;;;;;;5089928;28;20222;-75
2023/11/13 00:58:08;;;;;;;3.33;2.60;;;6.40;99.90;;;;;;5089823;28;20197;-75
2023/11/13 01:00:35;;;;;;;3.72;3.33;;;6.40;99.90;;;;;;5090071;28;20808;-75
2023/11/13 01:03:02;;;;;;;3.60;3.30;;;6.40;99.90;;;;;;5090425;28;20195;-75
2023/11/13 01:05:30;;;;;;;3.67;3.33;;;6.50;99.90;;;;;;5089952;28;20210;-75
2023/11/13 01:07:58;;;;;;;3.65;3.35;;;6.60;99.90;;;;;;5089969;28;20195;-75
2023/11/13 01:10:25;;;;;;;3.22;2.95;;;6.50;99.90;;;;;;5089586;28;20191;-75
2023/11/13 01:12:52;;;;;;;7.10;3.33;;;6.50;99.90;;;;;;5089871;28;21000;-75
2023/11/13 01:15:18;;;;;;;3.67;2.78;;;6.50;99.90;;;;;;5089848;28;20246;-75
2023/11/13 01:17:47;;;;;;;5.00;4.47;;;6.50;99.90;;;;;;5089312;28;20478;-75
2023/11/13 01:20:14;;;;;;;4.47;4.07;;;6.50;99.90;;;;;;5089788;28;20260;-75
2023/11/13 01:22:41;;;;;;;5.07;3.97;;;6.50;99.90;;;;;;5089037;28;20203;-75
2023/11/13 01:25:09;;;;;;;7.72;4.32;;;6.50;99.90;;;;;;5088754;28;20675;-75
2023/11/13 01:27:36;;;;;;;3.80;2.97;;;6.50;99.90;;;;;;5089318;28;20278;-75
2023/11/13 01:30:04;;;;;;;5.57;4.28;;;6.50;99.90;;;;;;5089919;28;20227;-75
2023/11/13 01:32:31;;;;;;;4.10;3.67;;;6.50;99.90;;;;;;5081561;28;20199;-75
2023/11/13 01:34:57;;;;;;;6.15;3.92;;;6.40;99.90;;;;;;5089316;28;20217;-75
2023/11/13 01:37:25;;;;;;;4.38;3.95;;;6.50;99.90;;;;;;5089335;28;20203;-75
2023/11/13 01:39:54;;;;;;;4.65;4.18;;;6.60;99.90;;;;;;5089561;28;20227;-75
2023/11/13 01:42:22;;;;;;;6.03;3.75;;;6.60;99.90;;;;;;5089559;28;20199;-75
2023/11/13 01:44:49;;;;;;;3.65;2.92;;;6.60;99.90;;;;;;5089263;28;20740;-75
2023/11/13 01:47:16;;;;;;;4.45;3.92;;;6.60;99.90;;;;;;5089092;28;20252;-75
2023/11/13 01:49:45;;;;;;;4.80;3.57;;;6.50;99.90;;;;;;5088579;28;20199;-75
2023/11/13 01:52:13;;;;;;;5.00;4.50;;;6.70;99.90;;;;;;5088640;28;20639;-75
2023/11/13 01:54:40;;;;;;;3.58;3.28;;;6.70;99.90;;;;;;5088993;28;20223;-75
2023/11/13 01:57:09;;;;;;;5.18;3.10;;;6.70;99.90;;;;;;5089101;28;20199;-75
2023/11/13 01:59:39;;;;;;;4.30;3.90;;;6.80;99.90;;;;;;5088559;28;20199;-75
2023/11/13 02:02:07;;;;;;;4.80;4.25;;;6.70;99.90;;;;;;5089179;28;20206;-75
2023/11/13 02:04:33;;;;;;;4.30;3.33;;;6.70;99.90;;;;;;5088261;28;20266;-75
2023/11/13 02:07:00;;;;;;;5.60;4.17;;;6.70;99.90;;;;;;5088128;28;20645;-76
2023/11/13 02:09:30;;;;;;;4.50;3.17;;;6.70;99.90;;;;;;5088003;28;20706;-75
2023/11/13 02:11:58;;;;;;;5.03;3.80;;;6.70;99.90;;;;;;5088880;28;20207;-76
2023/11/13 02:14:26;;;;;;;4.77;3.67;;;6.70;99.90;;;;;;5088561;28;20701;-75
2023/11/13 02:17:03;;;;;;;7.10;4.13;;;6.80;99.90;;;;;;5088127;28;20617;-75
2023/11/13 02:19:32;;;;;;;4.03;3.60;;;6.80;99.90;;;;;;5088395;28;20625;-75
2023/11/13 02:22:00;;;;;;;4.97;3.73;;;6.80;99.90;;;;;;5088795;28;20201;-75
2023/11/13 02:24:30;;;;;;;5.57;4.45;;;6.80;99.90;;;;;;5087519;28;20625;-75
2023/11/13 02:26:59;;;;;;;5.68;4.38;;;6.80;99.90;;;;;;5088340;28;20618;-75
2023/11/13 02:29:27;;;;;;;5.50;4.00;;;6.80;99.90;;;;;;5079338;28;20195;-75
2023/11/13 02:31:57;;;;;;;4.23;3.23;;;6.90;99.90;;;;;;5088727;28;20195;-75
2023/11/13 02:34:25;;;;;;;4.60;4.00;;;6.90;99.90;;;;;;5088075;28;21220;-76
2023/11/13 02:36:53;;;;;;;3.75;3.25;;;6.90;99.90;;;;;;5088187;28;20664;-75
2023/11/13 02:39:21;;;;;;;4.43;3.70;;;6.90;99.90;;;;;;5087669;28;20291;-75
2023/11/13 02:41:51;;;;;;;5.00;4.57;;;7.00;99.90;;;;;;5087749;28;20656;-75
2023/11/13 02:44:18;;;;;;;5.00;3.60;;;6.90;99.90;;;;;;5088465;28;20617;-75
2023/11/13 02:46:46;;;;;;;4.20;3.53;;;7.00;99.90;;;;;;5088222;28;20730;-76
2023/11/13 02:49:14;;;;;;;4.53;3.20;;;6.90;99.90;;;;;;5087156;28;20621;-75
2023/11/13 02:51:42;;;;;;;5.27;3.37;;;7.00;99.90;;;;;;5087990;28;20980;-75
2023/11/13 02:54:10;;;;;;;4.90;3.37;;;7.00;99.90;;;;;;5088475;28;20952;-75
2023/11/13 02:56:37;;;;;;;4.77;3.27;;;7.00;99.90;;;;;;5087104;28;21012;-75
2023/11/13 02:59:05;;;;;;;5.57;4.13;;;7.00;99.90;;;;;;5087492;28;20670;-76
2023/11/13 03:01:32;;;;;;;2.83;2.40;;;7.00;99.90;;;;;;5087813;28;20701;-75
2023/11/13 03:03:59;;;;;;;4.60;3.20;;;7.20;99.90;;;;;;5086917;28;20682;-76
2023/11/13 03:06:25;;;;;;;3.00;2.70;;;7.20;99.90;;;;;;5087698;28;20629;-74
2023/11/13 03:08:52;;;;;;;5.47;3.67;;;7.20;99.90;;;;;;5086799;28;20629;-73
2023/11/13 03:11:19;;;;;;;3.60;2.93;;;7.20;99.90;;;;;;5087515;28;20623;-74
2023/11/13 03:13:46;;;;;;;2.97;2.70;;;7.20;99.90;;;;;;5087371;28;20962;-74
2023/11/13 03:16:14;;;;;;;7.93;4.00;;;7.20;99.90;;;;;;5087556;28;20668;-75
2023/11/13 03:18:41;;;;;;;4.37;3.97;;;7.20;99.90;;;;;;5087366;28;20617;-76
2023/11/13 03:21:08;;;;;;;5.50;3.50;;;7.20;99.90;;;;;;5087396;28;20631;-76
2023/11/13 03:23:35;;;;;;;5.93;3.50;;;7.30;99.90;;;;;;5086822;28;20676;-75
2023/11/13 03:26:03;;;;;;;3.13;2.30;;;7.30;99.90;;;;;;5087071;28;20640;-76
2023/11/13 03:28:30;;;;;;;2.93;2.60;;;7.40;99.90;;;;;;5087289;28;20617;-75
2023/11/13 03:30:58;;;;;;;4.17;3.60;;;7.40;99.90;;;;;;5086477;28;20625;-75
2023/11/13 03:33:26;;;;;;;2.87;1.73;;;7.50;99.90;;;;;;5086489;28;20677;-76
2023/11/13 03:35:54;;;;;;;1.30;1.20;;;7.60;99.90;;;;;;5085224;28;21019;-75
2023/11/13 03:38:22;;;;;;;2.50;1.50;;;7.70;99.90;;;;;;5085494;28;21283;-75
2023/11/13 03:40:50;;;;;;;1.67;1.33;;;7.80;99.90;;;;;;5086433;28;20716;-76
2023/11/13 03:43:17;;;;;;;0.80;0.70;;;8.00;99.90;;;;;;5086330;28;20633;-75
2023/11/13 03:45:46;;;;;;;1.30;1.00;;;8.00;99.90;;;;;;5085195;28;21026;-75
2023/11/13 03:48:14;;;;;;;1.00;0.90;;;8.30;99.90;;;;;;5086379;28;20639;-75
2023/11/13 03:50:43;;;;;;;1.97;0.90;;;8.20;99.90;;;;;;5086446;28;20679;-75
2023/11/13 03:53:11;;;;;;;1.43;1.10;;;8.30;99.90;;;;;;5087196;28;20625;-75
2023/11/13 03:55:38;;;;;;;0.67;0.67;;;8.40;99.90;;;;;;5086750;28;20735;-75
2023/11/13 03:58:06;;;;;;;0.97;0.80;;;8.50;99.90;;;;;;5085990;28;20959;-75
2023/11/13 04:00:34;;;;;;;0.60;0.60;;;8.50;99.90;;;;;;5086852;28;20625;-75
2023/11/13 04:03:04;;;;;;;0.73;0.50;;;8.50;99.90;;;;;;5086664;28;20728;-75
2023/11/13 04:05:32;;;;;;;9.03;0.90;;;8.60;99.90;;;;;;5086913;28;20625;-76
2023/11/13 04:08:01;;;;;;;1.10;0.90;;;8.60;99.90;;;;;;5086580;28;20649;-76
2023/11/13 04:10:31;;;;;;;0.70;0.70;;;8.70;99.90;;;;;;5086906;28;20625;-75
2023/11/13 04:12:59;;;;;;;0.97;0.93;;;8.70;99.90;;;;;;5086424;28;21044;-76
2023/11/13 04:15:28;;;;;;;5.33;0.87;;;8.70;99.90;;;;;;5086232;28;20653;-75
2023/11/13 04:17:56;;;;;;;0.77;0.77;;;8.70;99.90;;;;;;5085927;28;20755;-76
2023/11/13 04:20:23;;;;;;;1.13;0.90;;;8.80;99.90;;;;;;5086706;28;20764;-76
2023/11/13 04:22:51;;;;;;;0.97;0.97;;;8.90;99.90;;;;;;5086543;28;20731;-75
2023/11/13 04:25:19;;;;;;;0.73;0.70;;;8.90;99.90;;;;;;5085853;28;20632;-75
2023/11/13 04:27:45;;;;;;;0.70;0.63;;;8.90;99.90;;;;;;5086276;28;20625;-75
2023/11/13 04:30:13;;;;;;;0.90;0.67;;;8.90;99.90;;;;;;5086246;28;21093;-75
2023/11/13 04:32:41;;;;;;;0.77;0.53;;;8.90;99.90;;;;;;5088048;28;20755;-75
2023/11/13 04:35:08;;;;;;;1.77;0.90;;;9.00;99.90;;;;;;5078632;28;20634;-75
2023/11/13 04:37:35;;;;;;;2.07;0.90;;;9.00;99.90;;;;;;5081136;28;20720;-75
2023/11/13 04:40:04;;;;;;;0.67;0.67;;;9.00;99.90;;;;;;5086628;28;21193;-75
2023/11/13 04:42:32;;;;;;;2.73;1.33;;;9.00;99.90;;;;;;5086303;28;20620;-76
2023/11/13 04:44:59;;;;;;;2.30;1.10;;;9.00;99.90;;;;;;5085772;28;21055;-75
2023/11/13 04:47:26;;;;;;;1.50;1.07;;;9.10;99.90;;;;;;5086676;28;21173;-75
2023/11/13 04:49:53;;;;;;;1.37;1.20;;;9.00;99.90;;;;;;5086617;28;20617;-76
2023/11/13 04:52:20;;;;;;;1.13;1.00;;;9.00;99.90;;;;;;5086748;28;20724;-75
2023/11/13 04:54:46;;;;;;;0.60;0.60;;;9.00;99.90;;;;;;5086319;28;20621;-75
2023/11/13 04:57:13;;;;;;;1.57;1.00;;;9.00;99.90;;;;;;5085918;28;20661;-76
2023/11/13 04:59:41;;;;;;;0.70;0.50;;;9.00;99.90;;;;;;5086072;28;20660;-75
2023/11/13 05:02:09;;;;;;;1.20;0.50;;;9.00;99.90;;;;;;5086265;28;20617;-76
2023/11/13 05:04:36;;;;;;;0.73;0.50;;;8.90;99.90;;;;;;5086176;28;20653;-75
2023/11/13 05:07:04;;;;;;;2.93;1.77;;;8.90;99.90;;;;;;5085961;28;20625;-75
2023/11/13 05:09:30;;;;;;;4.00;1.17;;;8.90;99.90;;;;;;5085657;28;20625;-76
2023/11/13 05:11:58;;;;;;;0.97;0.87;;;9.00;99.90;;;;;;5085483;28;20613;-76
2023/11/13 05:14:25;;;;;;;1.23;0.93;;;9.00;99.90;;;;;;5085984;28;20629;-76
2023/11/13 05:16:56;;;;;;;3.93;0.93;;;9.00;99.90;;;;;;5077948;28;20744;-75
2023/11/13 05:19:23;;;;;;;2.90;1.40;;;9.00;99.90;;;;;;5086076;28;20621;-75
2023/11/13 05:21:50;;;;;;;1.20;1.10;;;9.10;99.90;;;;;;5085845;28;20625;-76
2023/11/13 05:24:17;;;;;;;1.00;1.00;;;9.00;99.90;;;;;;5084859;28;20621;-75
2023/11/13 05:26:44;;;;;;;2.00;1.00;;;9.00;99.90;;;;;;5087783;28;20624;-76
2023/11/13 05:29:10;;;;;;;1.10;1.00;;;9.10;99.90;;;;;;5089063;28;21041;-74
2023/11/13 05:31:37;;;;;;;1.23;1.13;;;9.10;99.90;;;;;;5089507;28;20627;-74
2023/11/13 05:34:05;;;;;;;6.77;2.57;;;9.10;99.90;;;;;;5089394;28;21189;-74
2023/11/13 05:36:32;;;;;;;2.37;1.10;;;9.10;99.90;;;;;;5089208;28;20751;-74
2023/11/13 05:38:59;;;;;;;2.17;1.73;;;9.20;99.90;;;;;;5088501;28;20624;-74
2023/11/13 05:41:26;;;;;;;3.80;2.87;;;9.10;99.90;;;;;;5089604;28;20625;-74
2023/11/13 05:43:55;;;;;;;2.40;1.10;;;9.10;99.90;;;;;;5089178;28;20715;-74
2023/11/13 05:46:22;;;;;;;1.53;1.43;;;9.10;99.90;;;;;;5081035;28;20639;-74
2023/11/13 05:48:48;;;;;;;2.43;1.73;;;9.10;99.90;;;;;;5088792;28;20617;-74
2023/11/13 05:51:18;;;;;;;2.87;1.23;;;9.10;99.90;;;;;;5089016;28;20669;-74
2023/11/13 05:53:45;;;;;;;3.67;1.50;;;9.10;99.90;;;;;;5089164;28;21074;-74
2023/11/13 05:56:12;;;;;;;4.23;1.47;;;9.10;99.90;;;;;;5089087;28;20676;-74
2023/11/13 05:58:39;;;;;;;2.50;1.43;;;9.10;99.90;;;;;;5088657;28;20616;-74
2023/11/13 06:01:06;;;;;;;6.93;1.63;;;9.10;99.90;;;;;;5088968;28;20678;-74
2023/11/13 06:03:32;;;;;;;2.87;2.27;;;9.30;99.90;;;;;;5088984;28;20654;-74
2023/11/13 06:05:59;;;;;;;1.50;1.30;;;9.20;99.90;;;;;;5088413;28;20631;-74
2023/11/13 06:08:27;;;;;;;2.67;1.67;;;9.20;99.90;;;;;;5088210;28;20621;-74
2023/11/13 06:10:54;;;;;;;2.80;1.87;;;9.20;99.90;;;;;;5089022;28;21205;-74
2023/11/13 06:13:21;;;;;;;2.33;1.23;;;9.30;99.90;;;;;;5088911;28;20625;-76
2023/11/13 06:15:48;;;;;;;2.30;1.53;;;9.30;99.90;;;;;;5088739;28;20982;-74
2023/11/13 06:18:14;;;;;;;2.93;1.50;;;9.30;99.90;;;;;;5088460;28;20965;-74
2023/11/13 06:20:41;;;;;;;2.53;1.27;;;9.40;99.90;;;;;;5087954;28;20732;-74
2023/11/13 06:23:08;;;;;;;4.80;1.90;;;9.30;99.90;;;;;;5088808;28;20724;-74
2023/11/13 06:25:36;;;;;;;5.37;1.70;;;9.30;99.90;;;;;;5088460;28;20664;-75
2023/11/13 06:28:03;;;;;;;1.13;1.03;;;9.40;99.90;;;;;;5080055;28;20621;-74
2023/11/13 06:30:30;;;;;;;3.07;1.63;;;9.30;99.90;;;;;;5088325;28;20624;-75
2023/11/13 06:32:57;;;;;;;4.00;1.70;;;9.30;99.90;;;;;;5088457;28;20633;-75
2023/11/13 06:35:24;;;;;;;2.77;1.40;;;9.30;99.90;;;;;;5087794;28;20973;-74
2023/11/13 06:37:50;;;;;;;2.27;1.47;;;9.30;99.90;;;;;;5087646;28;20767;-74
2023/11/13 06:40:18;;;;;;;8.47;1.57;;;9.30;99.90;;;;;;5088390;28;20647;-74
2023/11/13 06:42:46;;;;;;;3.03;1.33;;;9.30;99.90;;;;;;5088406;28;20987;-74
2023/11/13 06:45:14;;;;;;;4.30;2.13;;;9.20;99.90;;;;;;5088303;28;20731;-75
2023/11/13 06:47:41;;;;;;;2.67;1.70;;;9.20;99.90;;;;;;5087124;28;20641;-75
2023/11/13 06:50:10;;;;;;;2.83;2.00;;;9.30;99.90;;;;;;5087894;28;20662;-75
2023/11/13 06:52:37;;;;;;;8.53;3.00;;;9.30;99.90;;;;;;5087840;28;21085;-75
2023/11/13 06:55:05;;;;;;;2.90;1.90;;;9.30;99.90;;;;;;5088016;28;21099;-75
2023/11/13 06:57:31;;;;;;;3.70;2.07;;;9.30;99.90;;;;;;5079144;28;20670;-75
2023/11/13 06:59:59;;;;;;;2.60;1.57;;;9.30;99.90;;;;;;5087448;28;21213;-76
2023/11/13 07:02:27;;;;;;;3.40;2.00;;;9.40;99.90;;;;;;5087300;28;20637;-76
2023/11/13 07:04:54;;;;;;;1.43;1.10;;;9.40;99.90;;;;;;5088017;28;20661;-76
2023/11/13 07:07:21;;;;;;;2.60;1.70;;;9.40;99.90;;;;;;5087976;28;20636;-76
2023/11/13 07:09:48;;;;;;;2.27;2.07;;;9.50;99.90;;;;;;5087558;28;20653;-75
2023/11/13 07:12:15;;;;;;;2.53;1.30;;;9.50;99.90;;;;;;5087814;28;20625;-76
2023/11/13 07:14:42;;;;;;;3.30;2.20;;;9.50;99.90;;;;;;5087243;28;20629;-76
2023/11/13 07:17:10;;;;;;;1.83;1.30;;;9.50;99.90;;;;;;5087263;28;20667;-75
2023/11/13 07:19:37;;;;;;;1.57;1.43;;;9.40;99.90;;;;;;5087045;28;21186;-75
2023/11/13 07:22:05;;;;;;;4.13;1.50;;;9.40;99.90;;;;;;5087694;28;21056;-76
2023/11/13 07:24:31;;;;;;;3.40;1.43;;;9.40;99.90;;;;;;5087693;28;21181;-76
2023/11/13 07:26:59;;;;;;;4.33;1.97;;;9.40;99.90;;;;;;5087177;28;20629;-75
2023/11/13 07:29:26;;;;;;;2.70;2.50;;;9.40;99.90;;;;;;5086517;28;20706;-75
2023/11/13 07:31:53;;;;;;;1.20;1.00;;;9.40;99.90;;;;;;5087432;28;20660;-75
2023/11/13 07:34:21;;;;;;;2.40;1.60;;;9.40;99.90;;;;;;5087504;28;20739;-75
2023/11/13 07:36:48;;;;;;;5.80;2.00;;;9.50;99.90;;;;;;5087059;28;20659;-76
2023/11/13 07:39:15;;;;;;;1.17;1.10;;;9.50;99.90;;;;;;5086788;28;20649;-75
2023/11/13 07:41:42;;;;;;;5.17;1.47;;;9.40;99.90;;;;;;5087237;28;20725;-75
2023/11/13 07:44:09;;;;;;;7.13;1.20;;;9.50;99.90;;;;;;5086325;28;21222;-75
2023/11/13 07:46:35;;;;;;;1.40;1.30;;;9.50;99.90;;;;;;5087229;28;20625;-75
2023/11/13 07:49:03;;;;;;;6.40;1.70;;;9.50;99.90;;;;;;5088657;28;20688;-74
2023/11/13 07:51:32;;;;;;;1.90;1.20;;;9.40;99.90;;;;;;5100937;28;20987;-74
2023/11/13 07:54:00;;;;;;;2.07;1.90;;;9.50;99.90;;;;;;5087131;28;20625;-74
2023/11/13 07:56:27;;;;;;;3.83;1.47;;;9.50;99.90;;;;;;5086315;28;20647;-74
2023/11/13 07:58:57;;;;;;;2.17;1.73;;;9.50;99.90;;;;;;5086354;28;20629;-74
2023/11/13 08:01:24;;;;;;;1.60;1.47;;;9.50;99.90;;;;;;5087018;28;20648;-74
2023/11/13 08:03:52;;;;;;;4.30;1.53;;;9.50;99.90;;;;;;5087130;28;20613;-74
2023/11/13 08:06:18;;;;;;;2.73;2.20;;;9.50;99.90;;;;;;5086471;28;20633;-74
2023/11/13 08:08:49;;;;;;;1.60;1.50;;;9.50;99.90;;;;;;5086164;28;21193;-74
2023/11/13 08:11:17;;;;;;;2.03;1.17;;;9.50;99.90;;;;;;5086210;28;20625;-74
2023/11/13 08:13:45;;;;;;;1.60;1.50;;;9.50;99.90;;;;;;5086574;28;21133;-75
2023/11/13 08:16:11;;;;;;;3.50;1.50;;;9.50;99.90;;;;;;5086648;28;20625;-74
2023/11/13 08:18:39;;;;;;;1.47;1.37;;;9.50;99.90;;;;;;5086062;28;20767;-75
2023/11/13 08:21:09;;;;;;;4.20;1.30;;;9.50;99.90;;;;;;5086707;28;20640;-75
2023/11/13 08:23:36;;;;;;;4.20;1.07;;;9.50;99.90;;;;;;5086004;28;20625;-75
2023/11/13 08:26:05;;;;;;;2.63;1.60;;;9.40;99.90;;;;;;5078657;28;20728;-75
2023/11/13 08:28:32;;;;;;;2.50;0.87;;;9.40;99.90;;;;;;5086287;28;20639;-75
2023/11/13 08:30:59;;;;;;;1.47;1.07;;;9.40;99.90;;;;;;5086628;28;20632;-75
2023/11/13 08:33:26;;;;;;;8.10;2.03;;;9.40;99.90;;;;;;5086365;28;20613;-75
2023/11/13 08:35:52;;;;;;;1.47;1.07;;;9.40;99.90;;;;;;5086164;28;20617;-76
2023/11/13 08:38:19;;;;;;;1.40;1.30;;;9.40;99.90;;;;;;5085288;28;20652;-76
2023/11/13 08:40:49;;;;;;;3.97;1.87;;;9.40;99.90;;;;;;5086698;28;20613;-76
2023/11/13 08:43:17;;;;;;;1.27;0.90;;;9.40;99.90;;;;;;5086410;28;20634;-76
2023/11/13 08:45:44;;;;;;;2.23;0.87;;;9.40;99.90;;;;;;5086671;28;20633;-75
2023/11/13 08:48:11;;;;;;;0.73;0.70;;;9.40;99.90;;;;;;5085543;28;21213;-76
2023/11/13 08:50:38;;;;;;;1.70;1.07;;;9.40;99.90;;;;;;5085868;28;20625;-76
2023/11/13 08:53:07;;;;;;;1.10;1.00;;;9.40;99.90;;;;;;5086545;28;20631;-75
2023/11/13 08:55:35;;;;;;;3.00;0.93;;;9.40;99.90;;;;;;5086199;28;21131;-76
2023/11/13 08:58:04;;;;;;;3.50;1.33;;;9.50;99.90;;;;;;5085631;28;20673;-75
2023/11/13 09:00:41;;;;;;;2.07;1.87;;;9.40;99.90;;;;;;5086533;28;20750;-75
2023/11/13 09:03:09;;;;;;;1.03;1.03;;;9.50;99.90;;;;;;5089692;28;20628;-75
2023/11/13 09:05:36;;;;;;;1.40;1.30;;;9.50;99.90;;;;;;5089993;28;20621;-75
2023/11/13 09:08:03;;;;;;;5.20;1.77;;;9.60;99.90;;;;;;5089827;28;20632;-75
2023/11/13 09:10:31;;;;;;;2.20;2.03;;;9.60;99.90;;;;;;5090038;28;20627;-75
2023/11/13 09:12:59;;;;;;;4.23;2.20;;;9.60;99.90;;;;;;5090418;28;20728;-74
2023/11/13 09:15:27;;;;;;;2.47;2.27;;;9.60;99.90;;;;;;5089759;28;20621;-76
2023/11/13 09:17:58;;;;;;;4.33;2.97;;;9.60;99.90;;;;;;5080299;28;20663;-75
2023/11/13 09:20:25;;;;;;;2.67;1.70;;;9.60;99.90;;;;;;5075964;28;20633;-76
2023/11/13 09:22:54;;;;;;;3.83;2.07;;;9.60;99.90;;;;;;5089246;28;20727;-75
2023/11/13 09:25:22;;;;;;;2.10;1.50;;;9.70;99.90;;;;;;5089405;28;20621;-75
2023/11/13 09:27:50;;;;;;;2.37;1.97;;;9.60;99.90;;;;;;5089184;28;20710;-75
2023/11/13 09:30:19;;;;;;;3.50;2.03;;;9.70;99.90;;;;;;5089057;28;20620;-75
2023/11/13 09:32:47;;;;;;;3.07;1.93;;;9.70;99.90;;;;;;5089757;28;20633;-75
2023/11/13 09:35:21;;;;;;;2.20;1.97;;;9.70;99.90;;;;;;5089570;28;20613;-75
2023/11/13 09:37:48;;;;;;;3.90;2.60;;;9.80;99.90;;;;;;5089129;28;20653;-76
2023/11/13 09:40:16;;;;;;;3.20;2.57;;;9.80;99.90;;;;;;5080870;28;21237;-75
2023/11/13 09:42:51;;;;;;;2.53;1.57;;;9.90;99.90;;;;;;5088960;28;20658;-75
2023/11/13 09:45:19;;;;;;;4.10;1.30;;;10.00;99.90;;;;;;5089128;28;21184;-75
2023/11/13 09:47:46;;;;;;;1.33;1.20;;;10.10;99.90;;;;;;5088697;28;20992;-75
2023/11/13 09:50:19;;;;;;;2.53;1.47;;;10.10;99.90;;;;;;5089008;28;21189;-76
2023/11/13 09:52:48;;;;;;;1.63;1.30;;;10.10;99.90;;;;;;5089301;28;20628;-76
2023/11/13 09:55:20;;;;;;;1.57;0.90;;;10.20;99.90;;;;;;5088806;28;20629;-75
2023/11/13 09:57:48;;;;;;;1.73;1.63;;;10.30;99.90;;;;;;5088893;28;21247;-75
2023/11/13 10:00:18;;;;;;;1.23;1.13;;;10.40;99.90;;;;;;5088974;28;21184;-75
2023/11/13 10:02:46;;;;;;;1.77;1.40;;;10.40;99.90;;;;;;5089240;28;21049;-75
2023/11/13 10:05:16;;;;;;;2.60;1.13;;;10.50;99.90;;;;;;5088857;28;21292;-75
2023/11/13 10:07:47;;;;;;;1.00;0.93;;;10.60;99.90;;;;;;5079816;28;20617;-75
2023/11/13 10:10:17;;;;;;;2.07;1.07;;;10.70;99.90;;;;;;5089375;28;20969;-75
2023/11/13 10:12:45;;;;;;;2.53;1.47;;;10.70;99.90;;;;;;5088309;28;20629;-75
2023/11/13 10:15:13;;;;;;;5.70;1.73;;;10.70;99.90;;;;;;5088507;28;20686;-75
2023/11/13 10:17:43;;;;;;;1.10;1.00;;;10.80;99.90;;;;;;5088024;28;21002;-75
2023/11/13 10:20:10;;;;;;;0.70;0.67;;;10.80;99.90;;;;;;5082197;28;20620;-74
2023/11/13 10:22:39;;;;;;;0.97;0.70;;;10.90;99.90;;;;;;5089033;28;20965;-75
2023/11/13 10:25:11;;;;;;;2.30;0.90;;;11.00;99.90;;;;;;5087668;28;20625;-75
2023/11/13 10:27:39;;;;;;;1.20;1.03;;;11.00;99.90;;;;;;5087775;28;21023;-75
2023/11/13 10:30:07;;;;;;;2.10;1.63;;;11.10;99.90;;;;;;5088820;28;20686;-75
2023/11/13 10:32:36;;;;;;;1.37;1.27;;;11.10;99.90;;;;;;5088468;28;20632;-75
2023/11/13 10:35:08;;;;;;;0.90;0.80;;;11.10;99.90;;;;;;5087856;28;20795;-75
2023/11/13 10:37:38;;;;;;;1.20;1.10;;;11.10;99.90;;;;;;5087864;28;20660;-75
2023/11/13 10:40:11;;;;;;;2.80;1.50;;;11.10;99.90;;;;;;5088204;28;20625;-75
2023/11/13 10:42:38;;;;;;;1.13;1.03;;;11.10;99.90;;;;;;5088086;28;21177;-75
2023/11/13 10:45:12;;;;;;;1.30;1.20;;;11.20;99.90;;;;;;5088395;28;20618;-75
2023/11/13 10:47:49;;;;;;;1.03;0.97;;;11.30;99.90;;;;;;5087896;28;21006;-75
2023/11/13 10:50:19;;;;;;;0.90;0.90;;;11.40;99.90;;;;;;5088130;28;21008;-75
2023/11/13 10:52:49;;;;;;;6.23;1.70;;;11.40;99.90;;;;;;5088389;28;20648;-75
2023/11/13 10:55:18;;;;;;;2.63;1.50;;;11.50;99.90;;;;;;5087792;28;20635;-75
2023/11/13 10:57:45;;;;;;;1.63;1.53;;;11.50;99.90;;;;;;5086841;28;20657;-75
2023/11/13 11:00:13;;;;;;;2.10;1.47;;;11.50;99.90;;;;;;5088145;28;20625;-75
2023/11/13 11:02:45;;;;;;;2.23;1.30;;;11.60;99.90;;;;;;5088054;28;20629;-75
2023/11/13 11:05:21;;;;;;;1.10;1.00;;;11.60;99.90;;;;;;5087999;28;20637;-76
2023/11/13 11:07:53;;;;;;;1.50;1.30;;;11.70;99.90;;;;;;5079663;28;20753;-75
2023/11/13 11:10:24;;;;;;;1.40;1.30;;;11.80;99.90;;;;;;5087196;28;20708;-75
2023/11/13 11:12:59;;;;;;;2.20;1.67;;;11.80;99.90;;;;;;5087986;28;21025;-74
2023/11/13 11:16:04;;;;;;;1.13;0.97;;;11.80;99.90;;;;;;5087497;28;20627;-75
2023/11/13 11:18:39;;;;;;;1.60;1.13;;;11.80;99.90;;;;;;5058042;28;20657;-75
2023/11/13 11:21:15;;;;;;;1.30;1.20;;;11.80;99.90;;;;;;5087530;28;20685;-75
2023/11/13 11:23:51;;;;;;;1.07;1.07;;;11.80;99.90;;;;;;5086739;28;20625;-75
2023/11/13 11:26:19;;;;;;;1.63;1.53;;;11.90;99.90;;;;;;5087320;28;20620;-75
2023/11/13 11:28:48;;;;;;;1.80;1.33;;;12.00;99.90;;;;;;5086936;28;20636;-75
2023/11/13 11:31:47;;;;;;;2.23;1.50;;;11.90;99.90;;;;;;5087261;28;21073;-75
2023/11/13 11:34:23;;;;;;;2.83;1.43;;;11.90;99.90;;;;;;5080242;28;20631;-75
2023/11/13 11:36:54;;;;;;;2.10;1.30;;;12.00;99.90;;;;;;5087083;28;20694;-75
2023/11/13 11:39:22;;;;;;;1.00;0.90;;;12.00;99.90;;;;;;5086327;28;20657;-76
2023/11/13 11:41:52;;;;;;;2.80;1.00;;;12.10;99.90;;;;;;5087316;28;20613;-75
2023/11/13 11:44:22;;;;;;;2.97;2.13;;;12.10;99.90;;;;;;5079194;28;20617;-76
2023/11/13 11:46:51;;;;;;;3.20;1.93;;;12.10;99.90;;;;;;5087048;28;20621;-76
2023/11/13 11:49:25;;;;;;;2.77;1.20;;;12.10;99.90;;;;;;5086482;28;20633;-76
2023/11/13 11:51:53;;;;;;;5.70;1.53;;;12.10;99.90;;;;;;5086525;28;20926;-76
2023/11/13 11:54:22;;;;;;;2.80;2.13;;;12.20;99.90;;;;;;5087452;28;21038;-77
2023/11/13 11:57:01;;;;;;;5.90;1.23;;;12.30;99.90;;;;;;5087161;28;21050;-76
2023/11/13 11:59:28;;;;;;;2.20;1.33;;;12.30;99.90;;;;;;5086300;28;20668;-76
2023/11/13 12:01:56;;;;;;;3.40;1.97;;;12.20;99.90;;;;;;5086799;28;20612;-76
2023/11/13 12:04:23;;;;;;;1.60;1.27;;;12.20;99.90;;;;;;5086613;28;20633;-76
2023/11/13 12:06:52;;;;;;;1.63;1.53;;;12.30;99.90;;;;;;5086729;28;20676;-76
2023/11/13 12:09:21;;;;;;;1.70;1.43;;;12.20;99.90;;;;;;5086404;28;20633;-76
2023/11/13 12:11:49;;;;;;;2.60;2.00;;;12.30;99.90;;;;;;5086717;28;21033;-76
2023/11/13 12:14:17;;;;;;;2.43;1.57;;;12.30;99.90;;;;;;5086812;28;20686;-76
2023/11/13 12:16:44;;;;;;;2.50;2.00;;;12.30;99.90;;;;;;5086417;28;20632;-76
2023/11/13 12:19:11;;;;;;;1.93;1.80;;;12.30;99.90;;;;;;5085661;28;20641;-76
2023/11/13 12:21:41;;;;;;;1.70;1.50;;;12.30;99.90;;;;;;5086631;28;20633;-76
2023/11/13 12:24:08;;;;;;;2.63;1.73;;;12.50;99.90;;;;;;5086849;28;20621;-76
2023/11/13 12:26:37;;;;;;;3.03;2.03;;;12.50;99.90;;;;;;5086730;28;20985;-76
2023/11/13 12:29:17;;;;;;;2.90;1.53;;;12.50;99.90;;;;;;5078425;28;20706;-76
2023/11/13 12:31:45;;;;;;;1.60;1.30;;;12.50;99.90;;;;;;5085966;28;20629;-76
2023/11/13 12:34:14;;;;;;;2.77;1.23;;;12.50;99.90;;;;;;5086863;28;20658;-76
2023/11/13 12:36:46;;;;;;;3.20;1.70;;;12.50;99.90;;;;;;5090762;28;20662;-76
2023/11/13 12:39:16;;;;;;;2.60;1.60;;;12.50;99.90;;;;;;5081897;28;20753;-76
2023/11/13 12:41:46;;;;;;;1.67;1.57;;;12.60;99.90;;;;;;5091258;28;20613;-76
2023/11/13 12:44:16;;;;;;;3.00;1.50;;;12.60;99.90;;;;;;5089849;28;20629;-76
2023/11/13 12:46:44;;;;;;;4.30;1.73;;;12.60;99.90;;;;;;5090378;28;20724;-76
2023/11/13 12:49:12;;;;;;;7.40;2.13;;;12.60;99.90;;;;;;5089837;28;20632;-76
2023/11/13 12:51:40;;;;;;;1.60;1.37;;;12.60;99.90;;;;;;5090365;28;20624;-75
2023/11/13 12:54:10;;;;;;;2.27;1.53;;;12.60;99.90;;;;;;5090322;28;20629;-76
2023/11/13 12:56:37;;;;;;;3.10;1.27;;;12.60;99.90;;;;;;5089707;28;20620;-76
2023/11/13 12:59:04;;;;;;;1.20;1.10;;;12.60;99.90;;;;;;5089863;28;20672;-75
2023/11/13 13:01:33;;;;;;;2.10;1.10;;;12.70;99.90;;;;;;5090513;28;21044;-75